Hampton, NE (68843)

1:23 AM CDT on August 29, 2015 (GMT -0500)
Aurora Municipal | | Change Station
CLOSE
Current Station
Airport
Location: Aurora,
Elevation: 1804 ft
Nearby Weather Stations

Elev 1804 ft 40.89 °N, 97.99 °W | Updated 8 minutes ago

Mostly Cloudy
Mostly Cloudy
61 °F
Feels Like 61 °F
N
6
Wind Variable Wind from North

Today
High -- | Low -- °F
--% Chance of Precip.
Yesterday
High -- | Low -- °F
Precip. -- in
6:55 AM 8:09 PM
Full, 100% visible
Pressure 30.03 in
Visibility 10.0 miles
Clouds Mostly Cloudy 800 ft
Dew Point 61 °F
Humidity 100%
Rainfall 0.00 in
Snow Depth Not available.
UV 0 out of 12
Pollen 8.30 out of 12
Air Quality Not available.
Flu Activity Not available.
METAR KAUH 290615Z AUTO 36005KT 10SM BKN008 16/16 A3003 RMK AO2 T01630163
Pressure 30.03 in
Visibility 10.0 miles
Clouds Mostly Cloudy 800 ft
Dew Point 61 °F
Humidity 100%
Rainfall 0.00 in
Snow Depth Not available.
UV 0 out of 12
Pollen 8.30 out of 12
Air Quality Not available.
Flu Activity Not available.
METAR KAUH 290615Z AUTO 36005KT 10SM BKN008 16/16 A3003 RMK AO2 T01630163

10-Day Weather Forecast

×

Almanac

Astronomy

Aug. 29, 2015 Rise Set
Actual Time
Civil Twilight
Nautical Twilight
Astronomical Twilight
Moon
Length of Visible Light
Length of Day
Tomorrow will be .
, % of the Moon is Illuminated

Today's Extremes

State Highs State Lows

Community

WunderPhotos

Upload Photos

1,850,622 photos uploaded!

WunderBlogs® & News

Nearby

Air Quality

  Air Quality AQ Index Pollutant
Not available.

Snow Depth

Station Depth Elevation

Earthquake Activity

City Distance Mag. Time & Date
Minimum magnitude displayed is 2.5.

Coastal Water Temperatures

Place Temperature

Stations

Nearby Weather Stations

Station Location Temp. Windchill Dew Point Humidity Wind Precip. Elev Updated Type